Estación Meteorológica Peña el Pijo (Robertgarden) [ 04/21/18 17:33:40 CEST ]

Fecha Hora Presion(HPa) Temp (°C) Humedad % Rocio (°C) Viento ( m/s) Direccion Lluvia 1Hora(mm) Lluvia 24H(mm) LLuvia Total(mm)
2018-Apr-15 01:01:58 1007.800 6.8 81 3.8         200.98
2018-Apr-15 02:01:42 1007.500 6.7 81 3.7         200.98
2018-Apr-15 03:01:56 1007.500 6.4 82 3.5         200.98
2018-Apr-15 04:01:35 1007.400 6.4 82 3.5         200.98
2018-Apr-15 05:01:51 1007.500 6.6 83 3.9         200.98
2018-Apr-15 06:01:58 1007.600 7.1 81 4.1         200.98
2018-Apr-15 07:01:37 1007.700 8.9 80 5.6         200.98
2018-Apr-15 08:01:38 1007.800 11.7 71 6.6 1.8 NW     200.98
2018-Apr-15 09:01:42 1008.300 12.1 60 4.6         200.98
2018-Apr-15 10:01:38 1008.500 15.9 52 6.0         200.98
2018-Apr-15 11:01:45 1008.400 17.9 44 5.4         200.98
2018-Apr-15 12:02:10 1008.200 15.3 48 4.3         200.98
2018-Apr-15 13:01:39 1007.700 17.1 43 4.3         200.98
2018-Apr-15 14:01:55 1007.200 17.5 44 4.9         200.98
2018-Apr-15 15:01:34 1007.100 16.4 50 6.0 1.9 WNW     200.98
2018-Apr-15 16:01:44 1006.900 16.3 54 6.9         200.98
2018-Apr-15 17:01:41 1007.200 14.9 58 6.7         200.98
2018-Apr-15 18:01:48 1007.400 13.5 64 6.8         200.98
2018-Apr-15 19:01:46 1007.500 12.9 65 6.4         200.98
2018-Apr-15 20:01:47 1007.800 12.3 67 6.3         200.98
2018-Apr-15 21:01:43 1008.100 11.8 69 6.3         200.98
2018-Apr-15 22:01:38 1007.400 11.1 70 5.9         200.98
2018-Apr-15 23:01:43 1006.500 10.0 72 5.2         200.98

Temperatura Máxima:17°    Temperatura Mínima:
Presión Máxima:1008.500 Hpa    Presión Mínima:1006.500 Hpa


Volver